createdAt,value
2019-02-18T00:01:40.411Z,99.90
2019-02-18T00:04:11.739Z,99.90
2019-02-18T00:06:43.000Z,99.90
2019-02-18T00:09:14.450Z,99.90
2019-02-18T00:11:45.987Z,99.90
2019-02-18T00:14:18.507Z,99.90
2019-02-18T00:16:49.827Z,99.90
2019-02-18T00:19:21.013Z,99.90
2019-02-18T00:21:52.287Z,99.90
2019-02-18T00:24:23.736Z,99.90
2019-02-18T00:26:55.304Z,99.90
2019-02-18T00:29:26.756Z,99.90
2019-02-18T00:31:57.959Z,99.90
2019-02-18T00:34:29.144Z,99.90
2019-02-18T00:37:00.332Z,99.90
2019-02-18T00:39:31.504Z,99.90
2019-02-18T00:42:02.639Z,99.90
2019-02-18T00:44:33.808Z,99.90
2019-02-18T00:47:05.009Z,99.90
2019-02-18T00:49:36.414Z,99.90
2019-02-18T00:52:07.719Z,99.90
2019-02-18T00:54:38.890Z,99.90
2019-02-18T00:57:10.172Z,99.90
2019-02-18T00:59:41.209Z,99.90
2019-02-18T01:02:13.255Z,99.90
2019-02-18T01:04:44.436Z,99.90
2019-02-18T01:07:15.634Z,99.90
2019-02-18T01:09:47.299Z,99.90
2019-02-18T01:12:18.602Z,99.90
2019-02-18T01:14:50.156Z,99.90
2019-02-18T01:17:21.367Z,99.90
2019-02-18T01:19:52.437Z,99.90
2019-02-18T01:22:23.551Z,99.90
2019-02-18T01:24:54.980Z,99.90
2019-02-18T01:27:26.181Z,99.90
2019-02-18T01:29:57.286Z,99.90
2019-02-18T01:32:28.476Z,99.90
2019-02-18T01:34:59.511Z,99.90
2019-02-18T01:37:30.633Z,99.90
2019-02-18T01:40:02.009Z,99.90
2019-02-18T01:42:33.589Z,99.90
2019-02-18T01:45:05.564Z,99.90
2019-02-18T01:47:37.079Z,99.90
2019-02-18T01:50:11.873Z,99.90
2019-02-18T01:52:43.179Z,99.90
2019-02-18T01:55:14.616Z,99.90
2019-02-18T01:57:45.889Z,99.90
2019-02-18T02:00:17.456Z,99.90
2019-02-18T02:02:48.813Z,99.90
2019-02-18T02:05:21.081Z,99.90
2019-02-18T02:07:56.297Z,99.90
2019-02-18T02:10:25.632Z,99.90
2019-02-18T02:13:30.140Z,99.90
2019-02-18T02:16:03.710Z,99.90
2019-02-18T02:18:34.992Z,99.90
2019-02-18T02:21:06.263Z,99.90
2019-02-18T02:23:37.548Z,99.90
2019-02-18T02:26:08.823Z,99.90
2019-02-18T02:28:40.169Z,99.90
2019-02-18T02:31:11.499Z,99.90
2019-02-18T02:33:42.702Z,99.90
2019-02-18T02:36:13.809Z,99.90
2019-02-18T02:38:45.009Z,99.90
2019-02-18T02:41:16.185Z,99.90
2019-02-18T02:43:47.347Z,99.90
2019-02-18T02:46:18.531Z,99.90
2019-02-18T02:48:49.735Z,99.90
2019-02-18T02:51:20.909Z,99.90
2019-02-18T02:53:52.051Z,99.90
2019-02-18T02:56:23.234Z,99.90
2019-02-18T02:58:54.445Z,99.90
2019-02-18T03:01:25.609Z,99.90
2019-02-18T03:03:56.802Z,99.90
2019-02-18T03:06:27.981Z,99.90
2019-02-18T03:08:59.544Z,99.90
2019-02-18T03:11:30.771Z,99.90
2019-02-18T03:14:02.006Z,99.90
2019-02-18T03:16:33.082Z,99.90
2019-02-18T03:19:04.235Z,99.90
2019-02-18T03:21:35.458Z,99.90
2019-02-18T03:24:07.725Z,99.90
2019-02-18T03:26:39.232Z,99.90
2019-02-18T03:30:24.531Z,99.90
2019-02-18T03:32:57.932Z,99.90
2019-02-18T03:35:29.668Z,99.90
2019-02-18T03:38:00.834Z,99.90
2019-02-18T03:40:32.106Z,99.90
2019-02-18T03:43:03.663Z,99.90
2019-02-18T03:45:35.270Z,99.90
2019-02-18T03:48:06.575Z,99.90
2019-02-18T03:50:38.054Z,99.90
2019-02-18T03:53:09.290Z,99.90
2019-02-18T03:55:40.865Z,99.90
2019-02-18T03:58:12.031Z,99.90
2019-02-18T04:00:43.299Z,99.90
2019-02-18T04:03:14.552Z,99.90
2019-02-18T04:05:45.714Z,99.90
2019-02-18T04:08:16.888Z,99.90
2019-02-18T04:10:48.216Z,99.90
2019-02-18T04:13:19.402Z,99.90
2019-02-18T04:15:50.687Z,99.90
2019-02-18T04:18:22.233Z,99.90
2019-02-18T04:20:53.518Z,99.90
2019-02-18T04:23:24.967Z,99.90
2019-02-18T04:25:56.159Z,99.90
2019-02-18T04:28:27.282Z,99.90
2019-02-18T04:30:58.795Z,99.90
2019-02-18T04:33:29.831Z,99.90
2019-02-18T04:36:01.009Z,99.90
2019-02-18T04:38:32.140Z,99.90
2019-02-18T04:41:03.185Z,99.90
2019-02-18T04:43:34.613Z,99.90
2019-02-18T04:46:05.747Z,99.90
2019-02-18T04:48:36.978Z,99.90
2019-02-18T04:51:08.107Z,99.90
2019-02-18T04:53:39.267Z,99.90
2019-02-18T04:56:10.842Z,99.90
2019-02-18T04:58:41.870Z,99.90
2019-02-18T05:01:12.915Z,99.90
2019-02-18T05:03:44.305Z,99.90
2019-02-18T05:06:15.744Z,99.90
2019-02-18T05:08:47.376Z,99.90
2019-02-18T05:11:18.733Z,99.90
2019-02-18T05:13:49.830Z,99.90
2019-02-18T05:16:21.213Z,99.90
2019-02-18T05:18:52.568Z,99.90
2019-02-18T05:21:24.149Z,99.90
2019-02-18T05:23:55.324Z,99.90
2019-02-18T05:26:26.909Z,99.90
2019-02-18T05:28:57.950Z,99.90
2019-02-18T05:31:29.144Z,99.90
2019-02-18T05:34:00.547Z,99.90
2019-02-18T05:36:31.897Z,99.90
2019-02-18T05:39:03.563Z,99.90
2019-02-18T05:41:35.020Z,99.90
2019-02-18T05:44:07.076Z,99.90
2019-02-18T05:46:38.275Z,99.90
2019-02-18T05:49:09.374Z,99.90
2019-02-18T05:51:40.899Z,99.90
2019-02-18T05:54:12.390Z,99.90
2019-02-18T05:56:43.910Z,99.90
2019-02-18T05:59:15.004Z,99.90
2019-02-18T06:01:46.529Z,99.90
2019-02-18T06:04:17.591Z,99.90
2019-02-18T06:06:48.797Z,99.90
2019-02-18T06:09:29.072Z,99.90
2019-02-18T06:11:52.811Z,99.90
2019-02-18T06:14:24.365Z,99.90
2019-02-18T06:16:55.711Z,99.90
2019-02-18T06:19:26.901Z,99.90
2019-02-18T06:21:58.235Z,99.90
2019-02-18T06:24:29.339Z,99.90
2019-02-18T06:27:00.636Z,99.90
2019-02-18T06:29:31.880Z,99.90
2019-02-18T06:32:03.128Z,99.90
2019-02-18T06:34:34.392Z,99.90
2019-02-18T06:37:05.729Z,99.90
2019-02-18T06:39:41.374Z,99.90
2019-02-18T06:42:11.266Z,99.90
2019-02-18T06:44:48.941Z,99.90
2019-02-18T06:47:25.208Z,99.90
2019-02-18T06:49:56.035Z,99.90
2019-02-18T06:52:27.179Z,99.90
2019-02-18T06:54:58.333Z,99.90
2019-02-18T06:57:38.286Z,99.90
2019-02-18T07:00:23.035Z,99.90
2019-02-18T07:03:08.360Z,99.90
2019-02-18T07:05:45.291Z,99.90
2019-02-18T07:08:35.419Z,99.90
2019-02-18T07:11:26.098Z,99.90
2019-02-18T07:13:57.433Z,99.90
2019-02-18T07:16:28.866Z,99.90
2019-02-18T07:19:00.068Z,99.90
2019-02-18T07:21:31.163Z,99.90
2019-02-18T07:24:02.379Z,99.90
2019-02-18T07:26:33.489Z,99.90
2019-02-18T07:29:04.874Z,99.90
2019-02-18T07:31:35.888Z,99.90
2019-02-18T07:34:07.385Z,99.90
2019-02-18T07:36:38.589Z,99.90
2019-02-18T07:39:09.875Z,99.90
2019-02-18T07:41:41.011Z,99.90
2019-02-18T07:44:12.360Z,99.90
2019-02-18T07:46:43.913Z,99.90
2019-02-18T07:49:15.164Z,99.90
2019-02-18T07:51:46.263Z,99.90
2019-02-18T07:54:17.684Z,99.90
2019-02-18T07:56:48.711Z,99.90
2019-02-18T07:59:19.834Z,99.90
2019-02-18T08:01:52.213Z,99.90
2019-02-18T08:04:23.333Z,99.90
2019-02-18T08:06:54.355Z,99.90
2019-02-18T08:09:25.847Z,99.90
2019-02-18T08:11:57.022Z,99.90
2019-02-18T08:14:28.251Z,99.90
2019-02-18T08:16:59.999Z,99.90
2019-02-18T08:19:31.156Z,99.90
2019-02-18T08:22:02.643Z,99.90
2019-02-18T08:24:33.842Z,99.90
2019-02-18T08:27:05.386Z,99.90
2019-02-18T08:29:37.032Z,99.90
2019-02-18T08:32:10.728Z,99.90
2019-02-18T08:34:41.313Z,99.90
2019-02-18T08:37:12.617Z,99.90
2019-02-18T08:39:48.093Z,99.90
2019-02-18T08:42:19.440Z,99.90
2019-02-18T08:44:51.060Z,99.90
2019-02-18T08:47:22.218Z,99.90
2019-02-18T08:49:54.087Z,99.90
2019-02-18T08:52:25.209Z,99.90
2019-02-18T08:54:57.005Z,99.90
2019-02-18T08:57:28.408Z,99.90
2019-02-18T08:59:59.769Z,99.90
2019-02-18T09:02:31.147Z,99.90
2019-02-18T09:05:02.409Z,99.90
2019-02-18T09:07:33.536Z,99.90
2019-02-18T09:10:05.105Z,99.90
2019-02-18T09:12:36.579Z,99.90
2019-02-18T09:15:08.624Z,99.90
2019-02-18T09:17:39.774Z,99.90
2019-02-18T09:20:12.605Z,99.90
2019-02-18T09:23:05.027Z,99.90
2019-02-18T09:25:47.640Z,99.90
2019-02-18T09:28:18.929Z,99.90
2019-02-18T09:30:52.567Z,99.90
2019-02-18T09:33:24.334Z,99.90
2019-02-18T09:35:57.963Z,99.90
2019-02-18T09:38:28.997Z,99.90
2019-02-18T09:41:00.049Z,99.90
2019-02-18T09:43:31.887Z,99.90
2019-02-18T09:46:03.155Z,99.90
2019-02-18T09:48:34.588Z,99.90
2019-02-18T09:51:05.849Z,99.90
2019-02-18T09:53:38.601Z,98.70
2019-02-18T09:56:09.779Z,98.90
2019-02-18T09:58:40.966Z,98.70
2019-02-18T10:01:12.117Z,98.50
2019-02-18T10:03:43.654Z,98.10
2019-02-18T10:06:14.807Z,97.20
2019-02-18T10:08:45.931Z,96.40
2019-02-18T10:11:17.028Z,96.80
2019-02-18T10:13:48.232Z,96.00
2019-02-18T10:16:19.482Z,95.90
2019-02-18T10:18:50.604Z,95.90
2019-02-18T10:21:21.708Z,95.50
2019-02-18T10:23:53.520Z,95.30
2019-02-18T10:26:24.616Z,94.50
2019-02-18T10:28:55.742Z,94.30
2019-02-18T10:31:26.848Z,94.10
2019-02-18T10:33:57.990Z,94.20
2019-02-18T10:36:29.476Z,93.60
2019-02-18T10:39:00.618Z,93.10
2019-02-18T10:41:33.341Z,93.30
2019-02-18T10:44:04.723Z,92.70
2019-02-18T10:46:35.993Z,92.40
2019-02-18T10:49:19.104Z,92.20
2019-02-18T10:51:40.606Z,91.00
2019-02-18T10:54:12.084Z,90.00
2019-02-18T10:56:43.229Z,89.20
2019-02-18T10:59:14.747Z,89.30
2019-02-18T11:01:45.853Z,87.80
2019-02-18T11:04:16.976Z,85.90
2019-02-18T11:06:48.665Z,84.20
2019-02-18T11:09:20.046Z,82.30
2019-02-18T11:11:51.868Z,82.40
2019-02-18T11:14:23.368Z,81.70
2019-02-18T11:16:54.535Z,81.40
2019-02-18T11:19:25.652Z,80.40
2019-02-18T11:21:56.819Z,80.40
2019-02-18T11:24:28.333Z,79.70
2019-02-18T11:27:00.689Z,78.80
2019-02-18T11:29:31.966Z,79.20
2019-02-18T11:32:03.151Z,78.80
2019-02-18T11:34:34.377Z,79.50
2019-02-18T11:37:05.565Z,79.80
2019-02-18T11:39:36.775Z,78.00
2019-02-18T11:42:07.865Z,77.90
2019-02-18T11:44:39.225Z,76.70
2019-02-18T11:47:10.652Z,76.10
2019-02-18T11:49:41.844Z,75.50
2019-02-18T11:52:13.394Z,75.30
2019-02-18T11:54:44.815Z,74.40
2019-02-18T11:57:16.052Z,76.10
2019-02-18T11:59:47.229Z,75.40
2019-02-18T12:02:18.504Z,73.90
2019-02-18T12:04:49.679Z,71.90
2019-02-18T12:07:20.849Z,70.80
2019-02-18T12:09:52.102Z,71.40
2019-02-18T12:12:23.260Z,68.30
2019-02-18T12:14:54.697Z,64.10
2019-02-18T12:17:25.813Z,62.70
2019-02-18T12:19:56.908Z,60.00
2019-02-18T12:22:28.564Z,59.70
2019-02-18T12:25:00.386Z,58.00
2019-02-18T12:27:32.232Z,57.80
2019-02-18T12:30:04.053Z,57.40
2019-02-18T12:32:35.480Z,56.80
2019-02-18T12:35:08.462Z,54.60
2019-02-18T12:37:39.958Z,54.40
2019-02-18T12:40:11.186Z,54.70
2019-02-18T12:42:42.828Z,51.80
2019-02-18T12:45:14.099Z,50.70
2019-02-18T12:47:45.340Z,51.30
2019-02-18T12:50:16.763Z,51.20
2019-02-18T12:52:47.898Z,50.20
2019-02-18T12:55:19.430Z,50.10
2019-02-18T12:57:50.712Z,50.20
2019-02-18T13:00:21.872Z,49.20
2019-02-18T13:02:53.077Z,48.70
2019-02-18T13:05:24.365Z,48.20
2019-02-18T13:07:55.625Z,47.50
2019-02-18T13:10:34.583Z,47.60
2019-02-18T13:12:59.968Z,47.70
2019-02-18T13:15:31.169Z,47.80
2019-02-18T13:20:34.600Z,46.40
2019-02-18T13:23:05.866Z,46.80
2019-02-18T13:25:37.073Z,47.10
2019-02-18T13:28:08.730Z,47.70
2019-02-18T13:30:40.173Z,47.80
2019-02-18T13:33:11.346Z,47.10
2019-02-18T13:35:42.896Z,46.50
2019-02-18T13:38:14.238Z,46.70
2019-02-18T13:40:45.465Z,47.00
2019-02-18T13:43:16.973Z,46.80
2019-02-18T13:45:48.197Z,46.90
2019-02-18T13:48:19.716Z,46.20
2019-02-18T13:50:50.922Z,46.80
2019-02-18T13:53:22.117Z,46.60
2019-02-18T13:55:53.253Z,46.00
2019-02-18T13:58:24.645Z,46.30
2019-02-18T14:00:56.164Z,46.50
2019-02-18T14:03:27.963Z,47.10
2019-02-18T14:05:59.420Z,46.80
2019-02-18T14:08:30.620Z,46.70
2019-02-18T14:11:01.812Z,47.00
2019-02-18T14:13:33.061Z,47.20
2019-02-18T14:16:04.612Z,47.60
2019-02-18T14:18:36.156Z,47.30
2019-02-18T14:21:07.364Z,47.20
2019-02-18T14:23:38.526Z,48.00
2019-02-18T14:26:09.848Z,48.70
2019-02-18T14:28:41.378Z,49.50
2019-02-18T14:31:12.667Z,49.70
2019-02-18T14:33:43.804Z,50.10
2019-02-18T14:36:15.028Z,49.80
2019-02-18T14:38:46.576Z,50.50
2019-02-18T14:41:18.149Z,51.70
2019-02-18T14:43:49.375Z,52.70
2019-02-18T14:46:20.672Z,53.10
2019-02-18T14:48:52.622Z,53.60
2019-02-18T14:51:23.923Z,54.20
2019-02-18T14:53:55.639Z,53.20
2019-02-18T14:56:46.075Z,53.90
2019-02-18T14:59:17.345Z,54.00
2019-02-18T15:01:49.059Z,54.60
2019-02-18T15:04:21.020Z,54.90
2019-02-18T15:06:52.341Z,55.20
2019-02-18T15:09:23.527Z,54.60
2019-02-18T15:11:54.849Z,54.60
2019-02-18T15:14:26.011Z,54.20
2019-02-18T15:16:57.587Z,54.20
2019-02-18T15:21:50.861Z,53.80
2019-02-18T15:24:22.123Z,54.40
2019-02-18T15:26:54.360Z,55.00
2019-02-18T15:29:25.661Z,55.50
2019-02-18T15:31:57.302Z,55.50
2019-02-18T15:34:28.418Z,55.50
2019-02-18T15:36:59.730Z,56.10
2019-02-18T15:39:31.609Z,56.60
2019-02-18T15:42:03.353Z,56.30
2019-02-18T15:44:34.729Z,56.80
2019-02-18T15:47:07.373Z,56.50
2019-02-18T15:49:38.970Z,56.70
2019-02-18T15:52:10.622Z,57.10
2019-02-18T15:54:41.900Z,57.30
2019-02-18T15:57:13.122Z,57.40
2019-02-18T15:59:44.388Z,57.30
2019-02-18T16:02:15.611Z,56.70
2019-02-18T16:04:47.034Z,56.40
2019-02-18T16:07:18.670Z,55.90
2019-02-18T16:09:49.927Z,55.90
2019-02-18T16:12:21.223Z,56.00
2019-02-18T16:14:52.365Z,56.40
2019-02-18T16:17:23.674Z,56.60
2019-02-18T16:19:54.919Z,56.80
2019-02-18T16:22:26.493Z,57.50
2019-02-18T16:24:57.751Z,57.80
2019-02-18T16:27:29.004Z,58.30
2019-02-18T16:30:00.558Z,58.80
2019-02-18T16:32:31.709Z,59.70
2019-02-18T16:35:02.866Z,60.40
2019-02-18T16:37:34.626Z,61.40
2019-02-18T16:40:06.806Z,62.70
2019-02-18T16:42:38.133Z,64.00
2019-02-18T16:45:11.973Z,65.50
2019-02-18T16:47:43.930Z,67.40
2019-02-18T16:50:15.315Z,68.80
2019-02-18T16:52:46.849Z,69.00
2019-02-18T16:55:18.812Z,71.40
2019-02-18T16:57:49.951Z,72.60
2019-02-18T17:00:29.262Z,73.60
2019-02-18T17:03:00.690Z,75.20
2019-02-18T17:05:32.031Z,77.30
2019-02-18T17:08:03.425Z,79.90
2019-02-18T17:10:35.032Z,81.60
2019-02-18T17:13:08.413Z,83.90
2019-02-18T17:15:39.434Z,85.70
2019-02-18T17:18:10.755Z,87.50
2019-02-18T17:20:42.340Z,89.40
2019-02-18T17:23:13.954Z,90.30
2019-02-18T17:25:45.192Z,91.00
2019-02-18T17:28:16.993Z,90.90
2019-02-18T17:30:49.020Z,91.60
2019-02-18T17:33:20.987Z,92.30
2019-02-18T17:35:52.363Z,92.50
2019-02-18T17:38:23.531Z,92.80
2019-02-18T17:40:54.843Z,93.50
2019-02-18T17:43:26.339Z,94.20
2019-02-18T17:45:57.617Z,94.10
2019-02-18T17:48:29.324Z,95.30
2019-02-18T17:51:00.574Z,95.90
2019-02-18T17:53:31.798Z,95.90
2019-02-18T17:56:03.074Z,96.40
2019-02-18T17:58:34.713Z,96.70
2019-02-18T18:01:06.003Z,97.40
2019-02-18T18:03:37.233Z,98.00
2019-02-18T18:06:08.810Z,98.30
2019-02-18T18:08:40.231Z,98.60
2019-02-18T18:11:11.485Z,99.10
2019-02-18T18:13:42.707Z,99.20
2019-02-18T18:16:13.971Z,99.40
2019-02-18T18:18:45.312Z,99.70
2019-02-18T18:21:16.695Z,99.80
2019-02-18T18:23:47.999Z,99.90
2019-02-18T18:26:19.892Z,99.90
2019-02-18T18:28:51.050Z,99.90
2019-02-18T18:31:22.662Z,99.90
2019-02-18T18:33:53.923Z,99.90
2019-02-18T18:36:25.198Z,99.90
2019-02-18T18:38:56.732Z,99.90
2019-02-18T18:41:27.930Z,99.90
2019-02-18T18:43:59.173Z,99.90
2019-02-18T18:46:30.785Z,99.90
2019-02-18T18:49:01.938Z,99.90
2019-02-18T18:51:33.163Z,99.90
2019-02-18T18:54:04.821Z,99.90
2019-02-18T18:56:36.088Z,99.90
2019-02-18T18:59:08.605Z,99.90
2019-02-18T19:01:41.221Z,99.90
2019-02-18T19:04:12.981Z,99.90
2019-02-18T19:06:44.226Z,99.90
2019-02-18T19:09:15.803Z,99.90
2019-02-18T19:11:47.860Z,99.90
2019-02-18T19:14:19.032Z,99.90
2019-02-18T19:16:50.949Z,99.90
2019-02-18T19:19:22.092Z,99.90
2019-02-18T19:21:53.738Z,99.90
2019-02-18T19:24:25.069Z,99.90
2019-02-18T19:26:56.105Z,99.90
2019-02-18T19:29:28.028Z,99.90
2019-02-18T19:31:59.671Z,99.90
2019-02-18T19:34:31.193Z,99.90
2019-02-18T19:37:02.782Z,99.90
2019-02-18T19:39:34.079Z,99.90
2019-02-18T19:42:05.952Z,99.90
2019-02-18T19:44:37.167Z,99.90
2019-02-18T19:47:08.414Z,99.90
2019-02-18T19:49:39.648Z,99.90
2019-02-18T19:52:10.898Z,99.90
2019-02-18T19:54:42.224Z,99.90
2019-02-18T19:57:14.902Z,99.90
2019-02-18T19:59:46.197Z,99.90
2019-02-18T20:02:17.235Z,99.90
2019-02-18T20:04:48.451Z,99.90
2019-02-18T20:07:19.748Z,99.90
2019-02-18T20:09:51.396Z,99.90
2019-02-18T20:12:22.673Z,99.90
2019-02-18T20:14:53.747Z,99.90
2019-02-18T20:17:25.021Z,99.90
2019-02-18T20:19:56.585Z,99.90
2019-02-18T20:22:28.032Z,99.90
2019-02-18T20:24:59.355Z,99.90
2019-02-18T20:27:30.460Z,99.90
2019-02-18T20:30:01.963Z,99.90
2019-02-18T20:32:33.051Z,99.90
2019-02-18T20:35:05.072Z,99.90
2019-02-18T20:37:36.628Z,99.90
2019-02-18T20:40:07.999Z,99.90
2019-02-18T20:42:39.161Z,99.90
2019-02-18T20:45:11.762Z,99.90
2019-02-18T20:47:44.587Z,99.90
2019-02-18T20:50:15.842Z,99.90
2019-02-18T20:52:48.349Z,99.90
2019-02-18T20:55:20.270Z,99.90
2019-02-18T20:57:51.801Z,99.90
2019-02-18T21:00:23.183Z,99.90
2019-02-18T21:02:54.366Z,99.90
2019-02-18T21:05:25.512Z,99.90
2019-02-18T21:07:57.535Z,99.90
2019-02-18T21:10:29.176Z,99.90
2019-02-18T21:13:01.196Z,99.90
2019-02-18T21:15:32.488Z,99.90
2019-02-18T21:18:03.686Z,99.90
2019-02-18T21:20:35.966Z,99.90
2019-02-18T21:23:07.165Z,99.90
2019-02-18T21:25:38.415Z,99.90
2019-02-18T21:28:09.449Z,99.90
2019-02-18T21:30:40.715Z,99.90
2019-02-18T21:33:12.105Z,99.90
2019-02-18T21:35:43.682Z,99.90
2019-02-18T21:38:14.777Z,99.90
2019-02-18T21:40:46.083Z,99.90
2019-02-18T21:43:17.223Z,99.90
2019-02-18T21:45:49.222Z,99.90
2019-02-18T21:48:20.539Z,99.90
2019-02-18T21:50:51.752Z,99.90
2019-02-18T21:53:23.088Z,99.90
2019-02-18T21:55:54.431Z,99.90
2019-02-18T21:58:26.314Z,99.90
2019-02-18T22:00:57.638Z,99.90
2019-02-18T22:03:28.842Z,99.90
2019-02-18T22:06:00.113Z,99.90
2019-02-18T22:08:31.199Z,99.90
2019-02-18T22:11:03.156Z,99.90
2019-02-18T22:13:34.706Z,99.90
2019-02-18T22:16:06.031Z,99.90
2019-02-18T22:18:37.135Z,99.90
2019-02-18T22:21:08.937Z,99.90
2019-02-18T22:23:40.989Z,99.90
2019-02-18T22:26:12.479Z,99.90
2019-02-18T22:28:43.603Z,99.90
2019-02-18T22:31:14.799Z,99.90
2019-02-18T22:33:45.967Z,99.90
2019-02-18T22:36:17.098Z,99.90
2019-02-18T22:38:48.472Z,99.90
2019-02-18T22:41:19.817Z,99.90
2019-02-18T22:43:50.990Z,99.90
2019-02-18T22:46:22.197Z,99.90
2019-02-18T22:48:53.290Z,99.90
2019-02-18T22:51:24.900Z,99.90
2019-02-18T22:53:56.375Z,99.90
2019-02-18T22:56:27.746Z,99.90
2019-02-18T22:58:58.853Z,99.90
2019-02-18T23:01:30.317Z,99.90
2019-02-18T23:04:01.661Z,99.90
2019-02-18T23:06:32.932Z,99.90
2019-02-18T23:09:04.709Z,99.90
2019-02-18T23:11:37.762Z,99.90
2019-02-18T23:14:09.122Z,99.90
2019-02-18T23:16:41.465Z,99.90
2019-02-18T23:19:12.503Z,99.90
2019-02-18T23:21:43.626Z,99.90
2019-02-18T23:24:15.086Z,99.90
2019-02-18T23:26:46.360Z,99.90
2019-02-18T23:29:17.931Z,99.90
2019-02-18T23:31:49.296Z,99.90
2019-02-18T23:34:23.300Z,99.90
2019-02-18T23:36:54.422Z,99.90
2019-02-18T23:39:25.598Z,99.90
2019-02-18T23:41:57.418Z,99.90
2019-02-18T23:44:28.526Z,99.90
2019-02-18T23:47:00.697Z,99.90
2019-02-18T23:49:31.719Z,99.90
2019-02-18T23:52:02.844Z,99.90
2019-02-18T23:54:33.949Z,99.90
2019-02-18T23:57:05.487Z,99.90
2019-02-18T23:59:36.571Z,99.90
